< < Back
Terminal Aerodrome Forecast


Current Version              Previous Versions:   1  2  3  4  5  6  7  8  9  

Terminal Aerodrome Forecast

587
FTUS42 KJAX 020536
TAFJAX
TAF
KJAX 020536Z 0206/0306 18008KT P6SM FEW020 FEW060
     FM020700 18007KT P6SM BKN010
     FM021600 20013KT P6SM SCT020 BKN060
     FM021900 21015G20KT P6SM VCTS BKN020CB
     FM030200 18010KT P6SM SCT020 SCT060=

Latest METAR

817
SAUS80 KWBC 020600 CCA
MTRJAX
METAR KJAX 020556Z 18004KT 10SM BKN032 OVC200 25/23 A2990 RMK AO2 SLP125
T02500228 10261 20244 58008


USA.gov is the U.S. government's official web portal to all federal, state and local government web resources and services.